Benge, Washington
Current Conditions -  °F | °C
As of 11:53 AM on Friday 19 Dec 2014 (Local Time) from KPUW Reporting Station
Light Rain Light Rain  
Wind Chill: 35°   Ceiling: 3700
Heat Index: 40°   Visibility: 9mi
Dew Point: 38°   Wind: 7mph
Humidity: 93%   Direction: 190°S
Pressure: 29.94"   Gusts: NA
Location:  46.91°N, 118.1°W
Report Text: KPUW 191953Z AUTO 19006KT 9SM -RA FEW022 BKN037 OVC060 04/03 A2994 RMK AO2 SLP153 P0004 T00440033
Loading
Personal Weather Stations






























Interactive Weather Map New forecast layout! Learn more

10-Day Weather Forecast

Advertisements
Track Severe Weather on mobile